Stuyvesant — WNFX — position and weather

sailwx.info

Track history (hours):
 
Tides and Currents Weather Stations Pressure Air Temp Water Temp Dewpoint Dewpoint Depression Visibility Wind Speed Wind Dir Waves Ship Positions

Stuyvesant

Owner: THE DUTRA GROUP, SAN RAFAEL, CA. More information available from US FCC via Universal Licensing System and Coast Guard Vessel Documentation Center.

Last reported at 2018-Jan-18 04:00 UTC. Time now 2018-Jan-18 04:09 UTC.
Position N 39°29' W 075°33'.

Length 122 m; draft 10 m.

Type: Dredging. MMSI: 368098000.

Date/timePositionNaut miles runAvg speedWind from/ knotsBaromVisibWave heightAir tempDewpointWater temp
2018-Jan-18 04:00N 39°29' W 075°33'0 0.0
2018-Jan-18 03:30N 39°29' W 075°33'0 0.0
2018-Jan-18 03:00N 39°29' W 075°34'0 0.0
2018-Jan-18 02:31N 39°29' W 075°33'0 0.0
2018-Jan-18 02:01N 39°29' W 075°34'0 0.0
2018-Jan-18 01:30N 39°29' W 075°34'0 0.1
2018-Jan-18 01:01N 39°29' W 075°34'5 5.3
2018-Jan-18 00:00N 39°25' W 075°30'0 8.1
2018-Jan-17 23:57N 39°24' W 075°30'  
2018-Jan-12 15:00N 39°43' W 075°30'0 0.0
2018-Jan-12 14:30N 39°43' W 075°30'0 0.0
2018-Jan-12 14:00N 39°43' W 075°30'0 0.1
2018-Jan-12 13:31N 39°43' W 075°30'4 8.8
2018-Jan-12 13:00N 39°39' W 075°33'4 8.8
2018-Jan-12 12:31N 39°34' W 075°33'5 9.5
2018-Jan-12 12:00N 39°30' W 075°34'0 0.8
2018-Jan-12 11:31N 39°29' W 075°34'0 0.0
2018-Jan-12 11:01N 39°29' W 075°34'0 0.0
2018-Jan-12 10:31N 39°29' W 075°34'0 0.0
2018-Jan-12 10:01N 39°29' W 075°34'0 0.0
2018-Jan-12 09:31N 39°29' W 075°34'0 0.0
2018-Jan-12 09:00N 39°29' W 075°34'0 0.1
2018-Jan-12 08:30N 39°29' W 075°34'0 0.4
2018-Jan-12 08:01N 39°29' W 075°34'3 5.4
2018-Jan-12 07:30N 39°27' W 075°33'3 6.0
2018-Jan-12 07:00N 39°25' W 075°30'3 6.4
2018-Jan-12 06:30N 39°22' W 075°28'4 8.1
2018-Jan-12 06:00N 39°19' W 075°24'4 8.1
2018-Jan-12 05:30N 39°16' W 075°21'3 6.8
2018-Jan-12 05:00N 39°13' W 075°18'1 1.4
2018-Jan-12 04:30N 39°13' W 075°18'1 1.2
2018-Jan-12 04:00N 39°13' W 075°18'0 0.5
2018-Jan-12 03:30N 39°13' W 075°18'0 1.0
2018-Jan-12 03:00N 39°13' W 075°17'0 0.8
2018-Jan-12 02:31N 39°12' W 075°17'1 1.3
2018-Jan-12 02:00N 39°13' W 075°18'1 2.3
2018-Jan-12 01:31N 39°14' W 075°18'5 9.7
2018-Jan-12 01:01N 39°18' W 075°22'5 9.3
2018-Jan-12 00:30N 39°21' W 075°26'4 8.6
2018-Jan-12 00:00N 39°24' W 075°30'4 8.0
2018-Jan-11 23:30N 39°27' W 075°34'2 3.9
2018-Jan-11 23:01N 39°29' W 075°34'0 0.1
2018-Jan-11 22:30N 39°29' W 075°33'0 0.0
2018-Jan-11 22:00N 39°29' W 075°33'0 0.0
2018-Jan-11 21:30N 39°29' W 075°33'0 0.0
2018-Jan-11 21:00N 39°29' W 075°33'0 0.0
2018-Jan-11 20:30N 39°29' W 075°34'1 1.0
2018-Jan-11 20:00N 39°29' W 075°34'4 8.4
2018-Jan-11 19:30N 39°25' W 075°31'4 8.8
2018-Jan-11 19:00N 39°22' W 075°27'5 9.4
2018-Jan-11 18:30N 39°18' W 075°23'5 9.2
2018-Jan-11 18:00N 39°15' W 075°19'2 4.3
2018-Jan-11 17:30N 39°13' W 075°18'0 0.1
2018-Jan-11 17:00N 39°13' W 075°18'1 1.1
2018-Jan-11 16:30N 39°13' W 075°17'0 0.1
2018-Jan-11 16:00N 39°13' W 075°17'1 1.6
2018-Jan-11 15:31N 39°13' W 075°18'1 1.6
2018-Jan-11 15:00N 39°13' W 075°17'1 2.2
2018-Jan-11 14:31N 39°14' W 075°18'510.2
2018-Jan-11 14:00N 39°18' W 075°22'510.0
2018-Jan-11 13:29N 39°22' W 075°27'4 9.3
2018-Jan-11 13:01N 39°25' W 075°31'4 8.2
2018-Jan-11 12:31N 39°28' W 075°34'1 2.3
2018-Jan-11 12:00N 39°29' W 075°34'0 0.0
2018-Jan-11 11:30N 39°29' W 075°34'0 0.0
2018-Jan-11 11:01N 39°29' W 075°34'0 0.0
2018-Jan-11 10:31N 39°29' W 075°33'0 0.0
2018-Jan-11 10:00N 39°29' W 075°34'0 0.0
2018-Jan-11 09:30N 39°29' W 075°34'0 0.0
2018-Jan-11 09:01N 39°29' W 075°34'0 0.0
2018-Jan-11 08:31N 39°29' W 075°34'0 0.6
2018-Jan-11 08:00N 39°30' W 075°33'4 7.1
2018-Jan-11 07:31N 39°26' W 075°32'4 9.0
2018-Jan-11 07:01N 39°23' W 075°28'4 8.6
2018-Jan-11 06:31N 39°20' W 075°25'4 8.6
2018-Jan-11 06:01N 39°17' W 075°21'4 8.5
2018-Jan-11 05:30N 39°13' W 075°18'0 0.7
2018-Jan-11 05:01N 39°13' W 075°18'1 1.6
2018-Jan-11 04:30N 39°14' W 075°18'0 0.9
2018-Jan-11 04:00N 39°13' W 075°18'0 0.9
2018-Jan-11 03:30N 39°13' W 075°17'0 0.5
2018-Jan-11 03:00N 39°13' W 075°18'0 1.0
2018-Jan-11 02:30N 39°13' W 075°18'0 0.9
2018-Jan-11 02:00N 39°13' W 075°18'1 1.0
2018-Jan-11 01:31N 39°13' W 075°17'2 5.0
2018-Jan-11 01:00N 39°15' W 075°19'510.3
2018-Jan-11 00:30N 39°19' W 075°23'5 9.5
2018-Jan-11 00:01N 39°22' W 075°28'4 8.3
2018-Jan-10 23:31N 39°25' W 075°31'4 7.7
2018-Jan-10 23:00N 39°28' W 075°34'1 1.8
2018-Jan-10 22:31N 39°29' W 075°34'0 0.1
2018-Jan-10 22:01N 39°29' W 075°34'0 0.0
2018-Jan-10 21:30N 39°29' W 075°34'0 0.0
2018-Jan-10 21:00N 39°29' W 075°34'0 0.0
2018-Jan-10 20:30N 39°29' W 075°34'0 0.0
2018-Jan-10 20:00N 39°29' W 075°34'0 0.0
2018-Jan-10 19:31N 39°29' W 075°34'0 0.5
2018-Jan-10 19:01N 39°30' W 075°34'3 7.0
2018-Jan-10 18:30N 39°26' W 075°32'4 8.9
2018-Jan-10 18:00N 39°23' W 075°28'4 8.6
2018-Jan-10 17:30N 39°20' W 075°25'4 8.5
2018-Jan-10 17:00N 39°17' W 075°21'4 7.6
2018-Jan-10 16:30N 39°14' W 075°18'1 1.2
2018-Jan-10 16:00N 39°13' W 075°18'0 0.8
2018-Jan-10 15:30N 39°13' W 075°18'1 1.1
2018-Jan-10 15:00N 39°13' W 075°18'0 0.0
2018-Jan-10 14:30N 39°13' W 075°18'0 0.6
2018-Jan-10 14:00N 39°13' W 075°18'0 0.0
2018-Jan-10 13:30N 39°13' W 075°18'0 1.0
2018-Jan-10 13:00N 39°13' W 075°17'0 0.1
2018-Jan-10 12:30N 39°13' W 075°17'4 8.6
2018-Jan-10 12:00N 39°16' W 075°21'5 9.2
2018-Jan-10 11:30N 39°20' W 075°25'4 8.5
2018-Jan-10 11:00N 39°23' W 075°28'4 8.2
2018-Jan-10 10:30N 39°26' W 075°32'3 6.6
2018-Jan-10 10:00N 39°29' W 075°34'1 1.3
2018-Jan-10 09:30N 39°29' W 075°34'0 0.0
2018-Jan-10 09:00N 39°29' W 075°33'0 0.0
2018-Jan-10 08:31N 39°29' W 075°33'0 0.0
2018-Jan-10 08:01N 39°29' W 075°33'0 0.0
2018-Jan-10 07:31N 39°29' W 075°34'0 0.1
2018-Jan-10 07:01N 39°29' W 075°34'1 1.1
2018-Jan-10 06:30N 39°29' W 075°34'3 5.9
2018-Jan-10 06:00N 39°26' W 075°32'4 8.5
2018-Jan-10 05:30N 39°23' W 075°29'4 8.1
2018-Jan-10 05:01N 39°20' W 075°25'4 8.2
2018-Jan-10 04:31N 39°17' W 075°21'4 8.5
2018-Jan-10 04:00N 39°14' W 075°18'0 1.0
2018-Jan-10 03:31N 39°13' W 075°18'0 0.8
2018-Jan-10 03:01N 39°13' W 075°18'0 0.5
2018-Jan-10 02:31N 39°13' W 075°17'0 1.0
2018-Jan-10 02:01N 39°13' W 075°18'0 0.6
2018-Jan-10 01:30N 39°13' W 075°18'0 0.9
2018-Jan-10 01:00N 39°13' W 075°17'0 0.8
2018-Jan-10 00:31N 39°13' W 075°17'5 9.2
2018-Jan-10 00:01N 39°16' W 075°21'4 8.3
2018-Jan-09 23:30N 39°19' W 075°24'5 9.0
2018-Jan-09 23:00N 39°23' W 075°28'4 8.3
2018-Jan-09 22:31N 39°26' W 075°32'4 7.4
2018-Jan-09 22:01N 39°29' W 075°34'0 0.5
2018-Jan-09 21:31N 39°29' W 075°33'0 0.0
2018-Jan-09 21:01N 39°29' W 075°33'0 0.0
2018-Jan-09 20:30N 39°29' W 075°33'0 0.0
2018-Jan-09 20:01N 39°29' W 075°33'0 0.0
2018-Jan-09 19:30N 39°29' W 075°33'0 0.0
2018-Jan-09 19:00N 39°29' W 075°33'0 0.1
2018-Jan-09 18:30N 39°29' W 075°34'0 0.7
2018-Jan-09 18:01N 39°30' W 075°34'0 0.3
2018-Jan-09 17:31N 39°30' W 075°34'0 0.1
2018-Jan-09 17:00N 39°30' W 075°34'0 0.5
2018-Jan-09 16:30N 39°29' W 075°34'0 0.2
2018-Jan-09 16:01N 39°29' W 075°34'0 0.5
2018-Jan-09 15:31N 39°29' W 075°34'0 0.2
2018-Jan-09 15:00N 39°29' W 075°34'0 0.1
2018-Jan-09 14:30N 39°29' W 075°34'0 0.0
2018-Jan-09 14:00N 39°29' W 075°34'0 0.0
2018-Jan-09 13:31N 39°29' W 075°34'0 0.1
2018-Jan-09 13:01N 39°29' W 075°34'0 0.3
2018-Jan-09 12:30N 39°29' W 075°34'0 0.3
2018-Jan-09 12:00N 39°29' W 075°34'0 0.5
2018-Jan-09 11:30N 39°30' W 075°34'0 0.1
2018-Jan-09 11:00N 39°30' W 075°34'0 0.0
2018-Jan-09 10:30N 39°30' W 075°33'0 0.1
2018-Jan-09 10:00N 39°30' W 075°33'0 0.0
2018-Jan-09 09:31N 39°30' W 075°34'0 0.0
2018-Jan-09 09:00N 39°30' W 075°33'0 0.2
2018-Jan-09 08:30N 39°30' W 075°34'0 0.1
2018-Jan-09 08:01N 39°30' W 075°33'0 0.1
2018-Jan-09 07:31N 39°30' W 075°34'0 0.0
2018-Jan-09 07:01N 39°30' W 075°34'0 0.2
2018-Jan-09 06:31N 39°30' W 075°33'0 0.2
2018-Jan-09 06:01N 39°30' W 075°34'0 0.5
2018-Jan-09 05:31N 39°30' W 075°34'0 0.1
2018-Jan-09 05:01N 39°30' W 075°34'0 0.3
2018-Jan-09 04:30N 39°30' W 075°34'0 0.1
2018-Jan-09 04:00N 39°30' W 075°34'0 0.2
2018-Jan-09 03:31N 39°30' W 075°34'0 0.1
2018-Jan-09 03:00N 39°30' W 075°34'0 0.0
2018-Jan-09 02:31N 39°30' W 075°34'0 0.1
2018-Jan-09 02:01N 39°30' W 075°34'0 0.1
2018-Jan-09 01:30N 39°30' W 075°33'0 0.2
2018-Jan-09 01:01N 39°30' W 075°34'0 0.1
2018-Jan-09 00:30N 39°30' W 075°34'0 0.2
2018-Jan-09 00:01N 39°30' W 075°34'0 0.3
2018-Jan-08 23:30N 39°30' W 075°34'0 0.1
2018-Jan-08 23:00N 39°30' W 075°34'0 0.1
2018-Jan-08 22:31N 39°30' W 075°34'0 0.2
2018-Jan-08 22:01N 39°29' W 075°34'0 0.1
2018-Jan-08 21:30N 39°30' W 075°34'0 0.1
2018-Jan-08 21:01N 39°30' W 075°34'0 0.1
2018-Jan-08 20:30N 39°30' W 075°34'0 0.0
2018-Jan-08 20:00N 39°30' W 075°34'0 0.2
2018-Jan-08 19:30N 39°30' W 075°34'0 0.1
2018-Jan-08 19:01N 39°30' W 075°34'0 0.0
2018-Jan-08 18:31N 39°30' W 075°34'0 0.1
2018-Jan-08 18:00N 39°30' W 075°34'0 0.3
2018-Jan-08 17:31N 39°30' W 075°34'0 0.1
2018-Jan-08 17:01N 39°30' W 075°33'1 1.1
2018-Jan-08 16:30N 39°29' W 075°34'0 0.9
2018-Jan-08 16:00N 39°30' W 075°33'0 0.4
2018-Jan-08 15:30N 39°30' W 075°34'0 0.4
2018-Jan-08 15:01N 39°29' W 075°34'0 0.2
2018-Jan-08 14:30N 39°29' W 075°34'0 0.2
2018-Jan-08 14:00N 39°29' W 075°34'0 0.0
2018-Jan-08 13:30N 39°29' W 075°34'0 0.0
2018-Jan-08 13:00N 39°29' W 075°34'0 0.0
2018-Jan-08 12:30N 39°29' W 075°34'0 0.1
2018-Jan-08 12:01N 39°29' W 075°34'0 0.1
2018-Jan-08 11:30N 39°29' W 075°34'0 0.4
2018-Jan-08 11:01N 39°29' W 075°34'2 3.6
2018-Jan-08 10:30N 39°27' W 075°34'2 3.8
2018-Jan-08 10:01N 39°26' W 075°32'2 4.9
2018-Jan-08 09:31N 39°24' W 075°30'2 4.6
2018-Jan-08 09:00N 39°22' W 075°28'3 5.1
2018-Jan-08 08:30N 39°20' W 075°26'2 3.9
2018-Jan-08 08:01N 39°19' W 075°24'3 5.5
2018-Jan-08 07:30N 39°17' W 075°22'2 3.7
2018-Jan-08 07:01N 39°16' W 075°20'2 4.9
2018-Jan-08 06:30N 39°14' W 075°18'1 1.8
2018-Jan-08 06:01N 39°13' W 075°17'0 0.9
2018-Jan-08 05:31N 39°13' W 075°18'1 1.6
2018-Jan-08 05:01N 39°13' W 075°17'1 1.0
2018-Jan-08 04:30N 39°13' W 075°18'  
Track history (hours):
 
Tides and Currents Weather Stations Pressure Air Temp Water Temp Dewpoint Dewpoint Depression Visibility Wind Speed Wind Dir Waves Ship Positions

Stuyvesant

Owner: THE DUTRA GROUP, SAN RAFAEL, CA. More information available from US FCC via Universal Licensing System and Coast Guard Vessel Documentation Center.

Last reported at 2018-Jan-18 04:00 UTC. Time now 2018-Jan-18 04:09 UTC.
Position N 39°29' W 075°33'.

Length 122 m; draft 10 m.

Type: Dredging. MMSI: 368098000.

Date/timePositionNaut miles runAvg speedWind from/ knotsBaromVisibWave heightAir tempDewpointWater temp
2018-Jan-18 04:00N 39°29' W 075°33'0 0.0
2018-Jan-18 03:30N 39°29' W 075°33'0 0.0
2018-Jan-18 03:00N 39°29' W 075°34'0 0.0
2018-Jan-18 02:31N 39°29' W 075°33'0 0.0
2018-Jan-18 02:01N 39°29' W 075°34'0 0.0
2018-Jan-18 01:30N 39°29' W 075°34'0 0.1
2018-Jan-18 01:01N 39°29' W 075°34'5 5.3
2018-Jan-18 00:00N 39°25' W 075°30'0 8.1
2018-Jan-17 23:57N 39°24' W 075°30'  
2018-Jan-12 15:00N 39°43' W 075°30'0 0.0
2018-Jan-12 14:30N 39°43' W 075°30'0 0.0
2018-Jan-12 14:00N 39°43' W 075°30'0 0.1
2018-Jan-12 13:31N 39°43' W 075°30'4 8.8
2018-Jan-12 13:00N 39°39' W 075°33'4 8.8
2018-Jan-12 12:31N 39°34' W 075°33'5 9.5
2018-Jan-12 12:00N 39°30' W 075°34'0 0.8
2018-Jan-12 11:31N 39°29' W 075°34'0 0.0
2018-Jan-12 11:01N 39°29' W 075°34'0 0.0
2018-Jan-12 10:31N 39°29' W 075°34'0 0.0
2018-Jan-12 10:01N 39°29' W 075°34'0 0.0
2018-Jan-12 09:31N 39°29' W 075°34'0 0.0
2018-Jan-12 09:00N 39°29' W 075°34'0 0.1
2018-Jan-12 08:30N 39°29' W 075°34'0 0.4
2018-Jan-12 08:01N 39°29' W 075°34'3 5.4
2018-Jan-12 07:30N 39°27' W 075°33'3 6.0
2018-Jan-12 07:00N 39°25' W 075°30'3 6.4
2018-Jan-12 06:30N 39°22' W 075°28'4 8.1
2018-Jan-12 06:00N 39°19' W 075°24'4 8.1
2018-Jan-12 05:30N 39°16' W 075°21'3 6.8
2018-Jan-12 05:00N 39°13' W 075°18'1 1.4
2018-Jan-12 04:30N 39°13' W 075°18'1 1.2
2018-Jan-12 04:00N 39°13' W 075°18'0 0.5
2018-Jan-12 03:30N 39°13' W 075°18'0 1.0
2018-Jan-12 03:00N 39°13' W 075°17'0 0.8
2018-Jan-12 02:31N 39°12' W 075°17'1 1.3
2018-Jan-12 02:00N 39°13' W 075°18'1 2.3
2018-Jan-12 01:31N 39°14' W 075°18'5 9.7
2018-Jan-12 01:01N 39°18' W 075°22'5 9.3
2018-Jan-12 00:30N 39°21' W 075°26'4 8.6
2018-Jan-12 00:00N 39°24' W 075°30'4 8.0
2018-Jan-11 23:30N 39°27' W 075°34'2 3.9
2018-Jan-11 23:01N 39°29' W 075°34'0 0.1
2018-Jan-11 22:30N 39°29' W 075°33'0 0.0
2018-Jan-11 22:00N 39°29' W 075°33'0 0.0
2018-Jan-11 21:30N 39°29' W 075°33'0 0.0
2018-Jan-11 21:00N 39°29' W 075°33'0 0.0
2018-Jan-11 20:30N 39°29' W 075°34'1 1.0
2018-Jan-11 20:00N 39°29' W 075°34'4 8.4
2018-Jan-11 19:30N 39°25' W 075°31'4 8.8
2018-Jan-11 19:00N 39°22' W 075°27'5 9.4
2018-Jan-11 18:30N 39°18' W 075°23'5 9.2
2018-Jan-11 18:00N 39°15' W 075°19'2 4.3
2018-Jan-11 17:30N 39°13' W 075°18'0 0.1
2018-Jan-11 17:00N 39°13' W 075°18'1 1.1
2018-Jan-11 16:30N 39°13' W 075°17'0 0.1
2018-Jan-11 16:00N 39°13' W 075°17'1 1.6
2018-Jan-11 15:31N 39°13' W 075°18'1 1.6
2018-Jan-11 15:00N 39°13' W 075°17'1 2.2
2018-Jan-11 14:31N 39°14' W 075°18'510.2
2018-Jan-11 14:00N 39°18' W 075°22'510.0
2018-Jan-11 13:29N 39°22' W 075°27'4 9.3
2018-Jan-11 13:01N 39°25' W 075°31'4 8.2
2018-Jan-11 12:31N 39°28' W 075°34'1 2.3
2018-Jan-11 12:00N 39°29' W 075°34'0 0.0
2018-Jan-11 11:30N 39°29' W 075°34'0 0.0
2018-Jan-11 11:01N 39°29' W 075°34'0 0.0
2018-Jan-11 10:31N 39°29' W 075°33'0 0.0
2018-Jan-11 10:00N 39°29' W 075°34'0 0.0
2018-Jan-11 09:30N 39°29' W 075°34'0 0.0
2018-Jan-11 09:01N 39°29' W 075°34'0 0.0
2018-Jan-11 08:31N 39°29' W 075°34'0 0.6
2018-Jan-11 08:00N 39°30' W 075°33'4 7.1
2018-Jan-11 07:31N 39°26' W 075°32'4 9.0
2018-Jan-11 07:01N 39°23' W 075°28'4 8.6
2018-Jan-11 06:31N 39°20' W 075°25'4 8.6
2018-Jan-11 06:01N 39°17' W 075°21'4 8.5
2018-Jan-11 05:30N 39°13' W 075°18'0 0.7
2018-Jan-11 05:01N 39°13' W 075°18'1 1.6
2018-Jan-11 04:30N 39°14' W 075°18'0 0.9
2018-Jan-11 04:00N 39°13' W 075°18'0 0.9
2018-Jan-11 03:30N 39°13' W 075°17'0 0.5
2018-Jan-11 03:00N 39°13' W 075°18'0 1.0
2018-Jan-11 02:30N 39°13' W 075°18'0 0.9
2018-Jan-11 02:00N 39°13' W 075°18'1 1.0
2018-Jan-11 01:31N 39°13' W 075°17'2 5.0
2018-Jan-11 01:00N 39°15' W 075°19'510.3
2018-Jan-11 00:30N 39°19' W 075°23'5 9.5
2018-Jan-11 00:01N 39°22' W 075°28'4 8.3
2018-Jan-10 23:31N 39°25' W 075°31'4 7.7
2018-Jan-10 23:00N 39°28' W 075°34'1 1.8
2018-Jan-10 22:31N 39°29' W 075°34'0 0.1
2018-Jan-10 22:01N 39°29' W 075°34'0 0.0
2018-Jan-10 21:30N 39°29' W 075°34'0 0.0
2018-Jan-10 21:00N 39°29' W 075°34'0 0.0
2018-Jan-10 20:30N 39°29' W 075°34'0 0.0
2018-Jan-10 20:00N 39°29' W 075°34'0 0.0
2018-Jan-10 19:31N 39°29' W 075°34'0 0.5
2018-Jan-10 19:01N 39°30' W 075°34'3 7.0
2018-Jan-10 18:30N 39°26' W 075°32'4 8.9
2018-Jan-10 18:00N 39°23' W 075°28'4 8.6
2018-Jan-10 17:30N 39°20' W 075°25'4 8.5
2018-Jan-10 17:00N 39°17' W 075°21'4 7.6
2018-Jan-10 16:30N 39°14' W 075°18'1 1.2
2018-Jan-10 16:00N 39°13' W 075°18'0 0.8
2018-Jan-10 15:30N 39°13' W 075°18'1 1.1
2018-Jan-10 15:00N 39°13' W 075°18'0 0.0
2018-Jan-10 14:30N 39°13' W 075°18'0 0.6
2018-Jan-10 14:00N 39°13' W 075°18'0 0.0
2018-Jan-10 13:30N 39°13' W 075°18'0 1.0
2018-Jan-10 13:00N 39°13' W 075°17'0 0.1
2018-Jan-10 12:30N 39°13' W 075°17'4 8.6
2018-Jan-10 12:00N 39°16' W 075°21'5 9.2
2018-Jan-10 11:30N 39°20' W 075°25'4 8.5
2018-Jan-10 11:00N 39°23' W 075°28'4 8.2
2018-Jan-10 10:30N 39°26' W 075°32'3 6.6
2018-Jan-10 10:00N 39°29' W 075°34'1 1.3
2018-Jan-10 09:30N 39°29' W 075°34'0 0.0
2018-Jan-10 09:00N 39°29' W 075°33'0 0.0
2018-Jan-10 08:31N 39°29' W 075°33'0 0.0
2018-Jan-10 08:01N 39°29' W 075°33'0 0.0
2018-Jan-10 07:31N 39°29' W 075°34'0 0.1
2018-Jan-10 07:01N 39°29' W 075°34'1 1.1
2018-Jan-10 06:30N 39°29' W 075°34'3 5.9
2018-Jan-10 06:00N 39°26' W 075°32'4 8.5
2018-Jan-10 05:30N 39°23' W 075°29'4 8.1
2018-Jan-10 05:01N 39°20' W 075°25'4 8.2
2018-Jan-10 04:31N 39°17' W 075°21'4 8.5
2018-Jan-10 04:00N 39°14' W 075°18'0 1.0
2018-Jan-10 03:31N 39°13' W 075°18'0 0.8
2018-Jan-10 03:01N 39°13' W 075°18'0 0.5
2018-Jan-10 02:31N 39°13' W 075°17'0 1.0
2018-Jan-10 02:01N 39°13' W 075°18'0 0.6
2018-Jan-10 01:30N 39°13' W 075°18'0 0.9
2018-Jan-10 01:00N 39°13' W 075°17'0 0.8
2018-Jan-10 00:31N 39°13' W 075°17'5 9.2
2018-Jan-10 00:01N 39°16' W 075°21'4 8.3
2018-Jan-09 23:30N 39°19' W 075°24'5 9.0
2018-Jan-09 23:00N 39°23' W 075°28'4 8.3
2018-Jan-09 22:31N 39°26' W 075°32'4 7.4
2018-Jan-09 22:01N 39°29' W 075°34'0 0.5
2018-Jan-09 21:31N 39°29' W 075°33'0 0.0
2018-Jan-09 21:01N 39°29' W 075°33'0 0.0
2018-Jan-09 20:30N 39°29' W 075°33'0 0.0
2018-Jan-09 20:01N 39°29' W 075°33'0 0.0
2018-Jan-09 19:30N 39°29' W 075°33'0 0.0
2018-Jan-09 19:00N 39°29' W 075°33'0 0.1
2018-Jan-09 18:30N 39°29' W 075°34'0 0.7
2018-Jan-09 18:01N 39°30' W 075°34'0 0.3
2018-Jan-09 17:31N 39°30' W 075°34'0 0.1
2018-Jan-09 17:00N 39°30' W 075°34'0 0.5
2018-Jan-09 16:30N 39°29' W 075°34'0 0.2
2018-Jan-09 16:01N 39°29' W 075°34'0 0.5
2018-Jan-09 15:31N 39°29' W 075°34'0 0.2
2018-Jan-09 15:00N 39°29' W 075°34'0 0.1
2018-Jan-09 14:30N 39°29' W 075°34'0 0.0
2018-Jan-09 14:00N 39°29' W 075°34'0 0.0
2018-Jan-09 13:31N 39°29' W 075°34'0 0.1
2018-Jan-09 13:01N 39°29' W 075°34'0 0.3
2018-Jan-09 12:30N 39°29' W 075°34'0 0.3
2018-Jan-09 12:00N 39°29' W 075°34'0 0.5
2018-Jan-09 11:30N 39°30' W 075°34'0 0.1
2018-Jan-09 11:00N 39°30' W 075°34'0 0.0
2018-Jan-09 10:30N 39°30' W 075°33'0 0.1
2018-Jan-09 10:00N 39°30' W 075°33'0 0.0
2018-Jan-09 09:31N 39°30' W 075°34'0 0.0
2018-Jan-09 09:00N 39°30' W 075°33'0 0.2
2018-Jan-09 08:30N 39°30' W 075°34'0 0.1
2018-Jan-09 08:01N 39°30' W 075°33'0 0.1
2018-Jan-09 07:31N 39°30' W 075°34'0 0.0
2018-Jan-09 07:01N 39°30' W 075°34'0 0.2
2018-Jan-09 06:31N 39°30' W 075°33'0 0.2
2018-Jan-09 06:01N 39°30' W 075°34'0 0.5
2018-Jan-09 05:31N 39°30' W 075°34'0 0.1
2018-Jan-09 05:01N 39°30' W 075°34'0 0.3
2018-Jan-09 04:30N 39°30' W 075°34'0 0.1
2018-Jan-09 04:00N 39°30' W 075°34'0 0.2
2018-Jan-09 03:31N 39°30' W 075°34'0 0.1
2018-Jan-09 03:00N 39°30' W 075°34'0 0.0
2018-Jan-09 02:31N 39°30' W 075°34'0 0.1
2018-Jan-09 02:01N 39°30' W 075°34'0 0.1
2018-Jan-09 01:30N 39°30' W 075°33'0 0.2
2018-Jan-09 01:01N 39°30' W 075°34'0 0.1
2018-Jan-09 00:30N 39°30' W 075°34'0 0.2
2018-Jan-09 00:01N 39°30' W 075°34'0 0.3
2018-Jan-08 23:30N 39°30' W 075°34'0 0.1
2018-Jan-08 23:00N 39°30' W 075°34'0 0.1
2018-Jan-08 22:31N 39°30' W 075°34'0 0.2
2018-Jan-08 22:01N 39°29' W 075°34'0 0.1
2018-Jan-08 21:30N 39°30' W 075°34'0 0.1
2018-Jan-08 21:01N 39°30' W 075°34'0 0.1
2018-Jan-08 20:30N 39°30' W 075°34'0 0.0
2018-Jan-08 20:00N 39°30' W 075°34'0 0.2
2018-Jan-08 19:30N 39°30' W 075°34'0 0.1
2018-Jan-08 19:01N 39°30' W 075°34'0 0.0
2018-Jan-08 18:31N 39°30' W 075°34'0 0.1
2018-Jan-08 18:00N 39°30' W 075°34'0 0.3
2018-Jan-08 17:31N 39°30' W 075°34'0 0.1
2018-Jan-08 17:01N 39°30' W 075°33'1 1.1
2018-Jan-08 16:30N 39°29' W 075°34'0 0.9
2018-Jan-08 16:00N 39°30' W 075°33'0 0.4
2018-Jan-08 15:30N 39°30' W 075°34'0 0.4
2018-Jan-08 15:01N 39°29' W 075°34'0 0.2
2018-Jan-08 14:30N 39°29' W 075°34'0 0.2
2018-Jan-08 14:00N 39°29' W 075°34'0 0.0
2018-Jan-08 13:30N 39°29' W 075°34'0 0.0
2018-Jan-08 13:00N 39°29' W 075°34'0 0.0
2018-Jan-08 12:30N 39°29' W 075°34'0 0.1
2018-Jan-08 12:01N 39°29' W 075°34'0 0.1
2018-Jan-08 11:30N 39°29' W 075°34'0 0.4
2018-Jan-08 11:01N 39°29' W 075°34'2 3.6
2018-Jan-08 10:30N 39°27' W 075°34'2 3.8
2018-Jan-08 10:01N 39°26' W 075°32'2 4.9
2018-Jan-08 09:31N 39°24' W 075°30'2 4.6
2018-Jan-08 09:00N 39°22' W 075°28'3 5.1
2018-Jan-08 08:30N 39°20' W 075°26'2 3.9
2018-Jan-08 08:01N 39°19' W 075°24'3 5.5
2018-Jan-08 07:30N 39°17' W 075°22'2 3.7
2018-Jan-08 07:01N 39°16' W 075°20'2 4.9
2018-Jan-08 06:30N 39°14' W 075°18'1 1.8
2018-Jan-08 06:01N 39°13' W 075°17'0 0.9
2018-Jan-08 05:31N 39°13' W 075°18'1 1.6
2018-Jan-08 05:01N 39°13' W 075°17'1 1.0
2018-Jan-08 04:30N 39°13' W 075°18'  

Dump ship's entire track history